sensor_id;sensor_type;location;lat;lon;timestamp;pressure;altitude;pressure_sealevel;temperature
53667;BMP280;39568;51.026;5.468;2022-08-19T00:01:27;100610.47;;;18.45
53667;BMP280;39568;51.026;5.468;2022-08-19T00:03:54;100612.97;;;18.43
53667;BMP280;39568;51.026;5.468;2022-08-19T00:06:27;100615.16;;;18.37
53667;BMP280;39568;51.026;5.468;2022-08-19T00:08:55;100617.88;;;18.29
53667;BMP280;39568;51.026;5.468;2022-08-19T00:11:23;100621.31;;;18.22
53667;BMP280;39568;51.026;5.468;2022-08-19T00:13:50;100622.00;;;18.15
53667;BMP280;39568;51.026;5.468;2022-08-19T00:16:18;100632.28;;;18.09
53667;BMP280;39568;51.026;5.468;2022-08-19T00:18:46;100632.63;;;18.06
53667;BMP280;39568;51.026;5.468;2022-08-19T00:21:13;100642.69;;;18.05
53667;BMP280;39568;51.026;5.468;2022-08-19T00:23:40;100634.63;;;17.98
53667;BMP280;39568;51.026;5.468;2022-08-19T00:26:11;100637.31;;;17.98
53667;BMP280;39568;51.026;5.468;2022-08-19T00:28:39;100627.78;;;17.97
53667;BMP280;39568;51.026;5.468;2022-08-19T00:31:07;100621.31;;;17.92
53667;BMP280;39568;51.026;5.468;2022-08-19T00:33:34;100624.38;;;17.96
53667;BMP280;39568;51.026;5.468;2022-08-19T00:36:07;100624.56;;;18.06
53667;BMP280;39568;51.026;5.468;2022-08-19T00:38:36;100626.50;;;18.28
53667;BMP280;39568;51.026;5.468;2022-08-19T00:41:10;100624.38;;;18.19
53667;BMP280;39568;51.026;5.468;2022-08-19T00:43:40;100627.41;;;18.08
53667;BMP280;39568;51.026;5.468;2022-08-19T00:46:09;100634.59;;;18.13
53667;BMP280;39568;51.026;5.468;2022-08-19T00:48:36;100629.38;;;18.30
53667;BMP280;39568;51.026;5.468;2022-08-19T00:51:11;100626.84;;;18.32
53667;BMP280;39568;51.026;5.468;2022-08-19T00:53:46;100631.00;;;18.10
53667;BMP280;39568;51.026;5.468;2022-08-19T00:56:13;100632.09;;;18.00
53667;BMP280;39568;51.026;5.468;2022-08-19T00:58:43;100631.56;;;18.01
53667;BMP280;39568;51.026;5.468;2022-08-19T01:01:11;100627.78;;;18.12
53667;BMP280;39568;51.026;5.468;2022-08-19T01:03:44;100625.97;;;18.22
53667;BMP280;39568;51.026;5.468;2022-08-19T01:06:14;100621.28;;;18.30
53667;BMP280;39568;51.026;5.468;2022-08-19T01:08:41;100615.94;;;18.22
53667;BMP280;39568;51.026;5.468;2022-08-19T01:11:08;100619.50;;;18.25
53667;BMP280;39568;51.026;5.468;2022-08-19T01:13:35;100616.44;;;18.21
53667;BMP280;39568;51.026;5.468;2022-08-19T01:16:08;100620.75;;;18.24
53667;BMP280;39568;51.026;5.468;2022-08-19T01:18:42;100620.03;;;18.23
53667;BMP280;39568;51.026;5.468;2022-08-19T01:24:02;100632.63;;;18.06
53667;BMP280;39568;51.026;5.468;2022-08-19T01:26:28;100638.59;;;17.82
53667;BMP280;39568;51.026;5.468;2022-08-19T01:28:59;100642.34;;;17.71
53667;BMP280;39568;51.026;5.468;2022-08-19T01:31:30;100639.81;;;17.65
53667;BMP280;39568;51.026;5.468;2022-08-19T01:33:57;100638.91;;;17.63
53667;BMP280;39568;51.026;5.468;2022-08-19T01:36:28;100638.91;;;17.63
53667;BMP280;39568;51.026;5.468;2022-08-19T01:38:58;100640.88;;;17.78
53667;BMP280;39568;51.026;5.468;2022-08-19T01:41:33;100640.53;;;17.89
53667;BMP280;39568;51.026;5.468;2022-08-19T01:44:04;100640.75;;;17.91
53667;BMP280;39568;51.026;5.468;2022-08-19T01:46:33;100640.53;;;17.89
53667;BMP280;39568;51.026;5.468;2022-08-19T01:49:02;100644.16;;;17.84
53667;BMP280;39568;51.026;5.468;2022-08-19T01:51:29;100654.56;;;17.80
53667;BMP280;39568;51.026;5.468;2022-08-19T01:53:57;100653.84;;;17.72
53667;BMP280;39568;51.026;5.468;2022-08-19T01:56:37;100650.22;;;17.69
53667;BMP280;39568;51.026;5.468;2022-08-19T01:59:11;100660.81;;;17.75
53667;BMP280;39568;51.026;5.468;2022-08-19T02:01:38;100660.63;;;17.72
53667;BMP280;39568;51.026;5.468;2022-08-19T02:04:06;100653.44;;;17.67
53667;BMP280;39568;51.026;5.468;2022-08-19T02:06:33;100657.53;;;17.53
53667;BMP280;39568;51.026;5.468;2022-08-19T02:09:00;100647.34;;;17.52
53667;BMP280;39568;51.026;5.468;2022-08-19T02:11:38;100653.97;;;17.58
53667;BMP280;39568;51.026;5.468;2022-08-19T02:14:06;100655.94;;;17.43
53667;BMP280;39568;51.026;5.468;2022-08-19T02:16:34;100652.84;;;17.31
53667;BMP280;39568;51.026;5.468;2022-08-19T02:19:01;100658.75;;;17.22
53667;BMP280;39568;51.026;5.468;2022-08-19T02:21:28;100657.28;;;17.14
53667;BMP280;39568;51.026;5.468;2022-08-19T02:23:56;100652.97;;;17.03
53667;BMP280;39568;51.026;5.468;2022-08-19T02:26:27;100651.13;;;16.98
53667;BMP280;39568;51.026;5.468;2022-08-19T02:28:58;100652.41;;;16.97
53667;BMP280;39568;51.026;5.468;2022-08-19T02:31:26;100664.75;;;16.92
53667;BMP280;39568;51.026;5.468;2022-08-19T02:33:57;100664.53;;;16.90
53667;BMP280;39568;51.026;5.468;2022-08-19T02:36:34;100671.22;;;16.97
53667;BMP280;39568;51.026;5.468;2022-08-19T02:39:05;100665.53;;;17.08
53667;BMP280;39568;51.026;5.468;2022-08-19T02:41:33;100659.06;;;17.11
53667;BMP280;39568;51.026;5.468;2022-08-19T02:44:05;100658.34;;;17.03
53667;BMP280;39568;51.026;5.468;2022-08-19T02:46:33;100657.31;;;17.21
53667;BMP280;39568;51.026;5.468;2022-08-19T02:49:09;100662.16;;;17.23
53667;BMP280;39568;51.026;5.468;2022-08-19T02:51:47;100661.06;;;17.26
53667;BMP280;39568;51.026;5.468;2022-08-19T02:54:14;100657.50;;;17.23
53667;BMP280;39568;51.026;5.468;2022-08-19T02:56:43;100671.81;;;17.18
53667;BMP280;39568;51.026;5.468;2022-08-19T02:59:11;100666.06;;;17.14
53667;BMP280;39568;51.026;5.468;2022-08-19T03:01:40;100663.22;;;17.12
53667;BMP280;39568;51.026;5.468;2022-08-19T03:04:12;100663.72;;;17.03
53667;BMP280;39568;51.026;5.468;2022-08-19T03:06:41;100662.44;;;17.04
53667;BMP280;39568;51.026;5.468;2022-08-19T03:09:09;100667.63;;;17.02
53667;BMP280;39568;51.026;5.468;2022-08-19T03:11:37;100665.84;;;16.97
53667;BMP280;39568;51.026;5.468;2022-08-19T03:14:06;100668.31;;;16.95
53667;BMP280;39568;51.026;5.468;2022-08-19T03:16:41;100671.16;;;16.89
53667;BMP280;39568;51.026;5.468;2022-08-19T03:19:08;100665.78;;;16.89
53667;BMP280;39568;51.026;5.468;2022-08-19T03:21:35;100659.84;;;16.83
53667;BMP280;39568;51.026;5.468;2022-08-19T03:24:05;100660.41;;;16.82
53667;BMP280;39568;51.026;5.468;2022-08-19T03:26:33;100657.13;;;16.76
53667;BMP280;39568;51.026;5.468;2022-08-19T03:29:01;100658.34;;;16.67
53667;BMP280;39568;51.026;5.468;2022-08-19T03:31:28;100664.09;;;16.71
53667;BMP280;39568;51.026;5.468;2022-08-19T03:33:58;100661.03;;;16.67
53667;BMP280;39568;51.026;5.468;2022-08-19T03:36:26;100661.66;;;16.53
53667;BMP280;39568;51.026;5.468;2022-08-19T03:38:59;100672.91;;;16.51
53667;BMP280;39568;51.026;5.468;2022-08-19T03:41:40;100676.28;;;16.44
53667;BMP280;39568;51.026;5.468;2022-08-19T03:44:06;100680.53;;;16.40
53667;BMP280;39568;51.026;5.468;2022-08-19T03:46:34;100674.66;;;16.41
53667;BMP280;39568;51.026;5.468;2022-08-19T03:49:13;100676.53;;;16.54
53667;BMP280;39568;51.026;5.468;2022-08-19T03:51:41;100665.97;;;16.56
53667;BMP280;39568;51.026;5.468;2022-08-19T03:54:11;100659.91;;;16.63
53667;BMP280;39568;51.026;5.468;2022-08-19T03:56:39;100669.72;;;16.53
53667;BMP280;39568;51.026;5.468;2022-08-19T03:59:09;100674.31;;;16.45
53667;BMP280;39568;51.026;5.468;2022-08-19T04:01:36;100674.59;;;16.34
53667;BMP280;39568;51.026;5.468;2022-08-19T04:04:03;100672.16;;;16.15
53667;BMP280;39568;51.026;5.468;2022-08-19T04:06:33;100669.25;;;16.13
53667;BMP280;39568;51.026;5.468;2022-08-19T04:09:03;100668.00;;;16.35
53667;BMP280;39568;51.026;5.468;2022-08-19T04:11:33;100656.63;;;16.49
53667;BMP280;39568;51.026;5.468;2022-08-19T04:14:00;100660.59;;;16.56
53667;BMP280;39568;51.026;5.468;2022-08-19T04:16:34;100652.75;;;16.58
53667;BMP280;39568;51.026;5.468;2022-08-19T04:19:02;100652.53;;;16.56
53667;BMP280;39568;51.026;5.468;2022-08-19T04:21:32;100652.16;;;16.52
53667;BMP280;39568;51.026;5.468;2022-08-19T04:24:02;100657.63;;;16.39
53667;BMP280;39568;51.026;5.468;2022-08-19T04:26:35;100655.03;;;16.54
53667;BMP280;39568;51.026;5.468;2022-08-19T04:29:06;100657.84;;;16.48
53667;BMP280;39568;51.026;5.468;2022-08-19T04:31:34;100641.41;;;16.52
53667;BMP280;39568;51.026;5.468;2022-08-19T04:34:03;100641.59;;;16.54
53667;BMP280;39568;51.026;5.468;2022-08-19T04:36:43;100651.81;;;16.55
53667;BMP280;39568;51.026;5.468;2022-08-19T04:39:15;100655.03;;;16.54
53667;BMP280;39568;51.026;5.468;2022-08-19T04:41:51;100651.97;;;16.50
53667;BMP280;39568;51.026;5.468;2022-08-19T04:44:35;100660.38;;;16.46
53667;BMP280;39568;51.026;5.468;2022-08-19T04:47:05;100642.63;;;16.43
53667;BMP280;39568;51.026;5.468;2022-08-19T04:49:32;100644.00;;;16.37
53667;BMP280;39568;51.026;5.468;2022-08-19T04:52:05;100661.53;;;16.38
53667;BMP280;39568;51.026;5.468;2022-08-19T04:54:33;100657.81;;;16.41
53667;BMP280;39568;51.026;5.468;2022-08-19T04:57:03;100669.94;;;16.34
53667;BMP280;39568;51.026;5.468;2022-08-19T04:59:37;100669.28;;;16.41
53667;BMP280;39568;51.026;5.468;2022-08-19T05:02:04;100670.91;;;16.44
53667;BMP280;39568;51.026;5.468;2022-08-19T05:04:34;100677.59;;;16.51
53667;BMP280;39568;51.026;5.468;2022-08-19T05:07:09;100671.16;;;16.54
53667;BMP280;39568;51.026;5.468;2022-08-19T05:09:39;100680.47;;;16.53
53667;BMP280;39568;51.026;5.468;2022-08-19T05:12:07;100695.13;;;16.52
53667;BMP280;39568;51.026;5.468;2022-08-19T05:14:34;100697.25;;;16.46
53667;BMP280;39568;51.026;5.468;2022-08-19T05:17:05;100698.09;;;16.41
53667;BMP280;39568;51.026;5.468;2022-08-19T05:19:32;100701.63;;;16.36
53667;BMP280;39568;51.026;5.468;2022-08-19T05:22:22;100698.22;;;16.63
53667;BMP280;39568;51.026;5.468;2022-08-19T05:25:06;100707.63;;;16.70
53667;BMP280;39568;51.026;5.468;2022-08-19T05:27:34;100714.09;;;16.74
53667;BMP280;39568;51.026;5.468;2022-08-19T05:30:01;100720.53;;;16.79
53667;BMP280;39568;51.026;5.468;2022-08-19T05:32:28;100704.41;;;16.79
53667;BMP280;39568;51.026;5.468;2022-08-19T05:34:55;100711.47;;;16.89
53667;BMP280;39568;51.026;5.468;2022-08-19T05:37:27;100717.06;;;16.99
53667;BMP280;39568;51.026;5.468;2022-08-19T05:39:54;100714.31;;;17.20
53667;BMP280;39568;51.026;5.468;2022-08-19T05:42:21;100719.78;;;17.42
53667;BMP280;39568;51.026;5.468;2022-08-19T05:44:49;100719.41;;;17.53
53667;BMP280;39568;51.026;5.468;2022-08-19T05:47:18;100710.69;;;17.68
53667;BMP280;39568;51.026;5.468;2022-08-19T05:49:45;100710.34;;;17.79
53667;BMP280;39568;51.026;5.468;2022-08-19T05:52:15;100709.44;;;17.84
53667;BMP280;39568;51.026;5.468;2022-08-19T05:54:44;100713.78;;;17.95
53667;BMP280;39568;51.026;5.468;2022-08-19T05:57:13;100718.09;;;18.05
53667;BMP280;39568;51.026;5.468;2022-08-19T05:59:40;100725.63;;;18.22
53667;BMP280;39568;51.026;5.468;2022-08-19T06:02:09;100711.63;;;18.23
53667;BMP280;39568;51.026;5.468;2022-08-19T06:04:39;100712.34;;;18.24
53667;BMP280;39568;51.026;5.468;2022-08-19T06:07:08;100712.69;;;18.20
53667;BMP280;39568;51.026;5.468;2022-08-19T06:09:36;100715.91;;;18.34
53667;BMP280;39568;51.026;5.468;2022-08-19T06:12:07;100720.22;;;18.37
53667;BMP280;39568;51.026;5.468;2022-08-19T06:14:35;100727.75;;;18.31
53667;BMP280;39568;51.026;5.468;2022-08-19T06:17:02;100720.97;;;18.22
53667;BMP280;39568;51.026;5.468;2022-08-19T06:19:30;100720.59;;;18.11
53667;BMP280;39568;51.026;5.468;2022-08-19T06:21:59;100727.41;;;18.12
53667;BMP280;39568;51.026;5.468;2022-08-19T06:24:31;100723.63;;;18.00
53667;BMP280;39568;51.026;5.468;2022-08-19T06:26:59;100730.44;;;18.01
53667;BMP280;39568;51.026;5.468;2022-08-19T06:29:28;100731.72;;;18.00
53667;BMP280;39568;51.026;5.468;2022-08-19T06:31:59;100725.28;;;18.18
53667;BMP280;39568;51.026;5.468;2022-08-19T06:34:28;100723.81;;;18.17
53667;BMP280;39568;51.026;5.468;2022-08-19T06:36:58;100721.34;;;18.19
53667;BMP280;39568;51.026;5.468;2022-08-19T06:39:27;100721.31;;;18.26
53667;BMP280;39568;51.026;5.468;2022-08-19T06:42:01;100724.38;;;18.30
53667;BMP280;39568;51.026;5.468;2022-08-19T06:44:33;100731.38;;;18.33
53667;BMP280;39568;51.026;5.468;2022-08-19T06:47:09;100726.50;;;18.47
53667;BMP280;39568;51.026;5.468;2022-08-19T06:49:36;100732.44;;;18.45
53667;BMP280;39568;51.026;5.468;2022-08-19T06:52:05;100719.09;;;18.55
53667;BMP280;39568;51.026;5.468;2022-08-19T06:54:32;100726.66;;;18.64
53667;BMP280;39568;51.026;5.468;2022-08-19T06:57:00;100728.44;;;18.69
53667;BMP280;39568;51.026;5.468;2022-08-19T06:59:31;100719.78;;;18.71
53667;BMP280;39568;51.026;5.468;2022-08-19T07:01:59;100724.59;;;18.87
53667;BMP280;39568;51.026;5.468;2022-08-19T07:04:28;100731.03;;;18.99
53667;BMP280;39568;51.026;5.468;2022-08-19T07:06:58;100743.19;;;19.15
53667;BMP280;39568;51.026;5.468;2022-08-19T07:09:25;100740.16;;;19.11
53667;BMP280;39568;51.026;5.468;2022-08-19T07:11:53;100739.22;;;19.24
53667;BMP280;39568;51.026;5.468;2022-08-19T07:14:22;100737.47;;;19.44
53667;BMP280;39568;51.026;5.468;2022-08-19T07:16:55;100734.22;;;19.45
53667;BMP280;39568;51.026;5.468;2022-08-19T07:19:26;100736.34;;;19.54
53667;BMP280;39568;51.026;5.468;2022-08-19T07:21:54;100744.38;;;19.62
53667;BMP280;39568;51.026;5.468;2022-08-19T07:24:23;100762.00;;;19.30
53667;BMP280;39568;51.026;5.468;2022-08-19T07:26:51;100761.31;;;19.22
53667;BMP280;39568;51.026;5.468;2022-08-19T07:29:19;100771.09;;;19.03
53667;BMP280;39568;51.026;5.468;2022-08-19T07:31:48;100764.63;;;18.98
53667;BMP280;39568;51.026;5.468;2022-08-19T07:34:17;100772.31;;;19.17
53667;BMP280;39568;51.026;5.468;2022-08-19T07:36:47;100769.13;;;19.03
53667;BMP280;39568;51.026;5.468;2022-08-19T07:39:18;100768.31;;;19.25
53667;BMP280;39568;51.026;5.468;2022-08-19T07:41:46;100763.69;;;19.51
53667;BMP280;39568;51.026;5.468;2022-08-19T07:44:14;100762.75;;;19.56
53667;BMP280;39568;51.026;5.468;2022-08-19T07:46:44;100763.94;;;19.70
53667;BMP280;39568;51.026;5.468;2022-08-19T07:49:12;100757.59;;;19.99
53667;BMP280;39568;51.026;5.468;2022-08-19T07:51:46;100764.72;;;20.12
53667;BMP280;39568;51.026;5.468;2022-08-19T07:54:17;100763.47;;;20.30
53667;BMP280;39568;51.026;5.468;2022-08-19T07:56:46;100760.22;;;20.32
53667;BMP280;39568;51.026;5.468;2022-08-19T07:59:17;100757.50;;;20.32
53667;BMP280;39568;51.026;5.468;2022-08-19T08:01:44;100776.16;;;20.20
53667;BMP280;39568;51.026;5.468;2022-08-19T08:04:11;100775.25;;;20.25
53667;BMP280;39568;51.026;5.468;2022-08-19T08:06:57;100781.78;;;20.39
53667;BMP280;39568;51.026;5.468;2022-08-19T08:09:44;100778.72;;;20.60
53667;BMP280;39568;51.026;5.468;2022-08-19T08:12:15;100781.00;;;20.63
53667;BMP280;39568;51.026;5.468;2022-08-19T08:14:47;100787.34;;;20.58
53667;BMP280;39568;51.026;5.468;2022-08-19T08:17:16;100779.25;;;20.75
53667;BMP280;39568;51.026;5.468;2022-08-19T08:19:44;100788.28;;;21.05
53667;BMP280;39568;51.026;5.468;2022-08-19T08:22:15;100794.78;;;21.19
53667;BMP280;39568;51.026;5.468;2022-08-19T08:25:00;100800.66;;;21.25
53667;BMP280;39568;51.026;5.468;2022-08-19T08:27:28;100803.25;;;21.06
53667;BMP280;39568;51.026;5.468;2022-08-19T08:30:05;100803.72;;;21.12
53667;BMP280;39568;51.026;5.468;2022-08-19T08:32:34;100807.53;;;21.09
53667;BMP280;39568;51.026;5.468;2022-08-19T08:35:02;100807.91;;;21.22
53667;BMP280;39568;51.026;5.468;2022-08-19T08:37:30;100807.72;;;21.37
53667;BMP280;39568;51.026;5.468;2022-08-19T08:39:58;100798.44;;;21.57
53667;BMP280;39568;51.026;5.468;2022-08-19T08:42:29;100796.22;;;21.82
53667;BMP280;39568;51.026;5.468;2022-08-19T08:44:59;100801.69;;;21.92
53667;BMP280;39568;51.026;5.468;2022-08-19T08:47:32;100806.16;;;22.07
53667;BMP280;39568;51.026;5.468;2022-08-19T08:50:05;100808.47;;;22.20
53667;BMP280;39568;51.026;5.468;2022-08-19T08:52:41;100803.19;;;22.12
53667;BMP280;39568;51.026;5.468;2022-08-19T08:55:24;100810.94;;;21.89
53667;BMP280;39568;51.026;5.468;2022-08-19T08:57:54;100810.00;;;21.67
53667;BMP280;39568;51.026;5.468;2022-08-19T09:00:28;100798.91;;;21.37
53667;BMP280;39568;51.026;5.468;2022-08-19T09:02:57;100810.47;;;21.47
53667;BMP280;39568;51.026;5.468;2022-08-19T09:05:32;100793.88;;;21.60
53667;BMP280;39568;51.026;5.468;2022-08-19T09:08:04;100797.63;;;21.74
53667;BMP280;39568;51.026;5.468;2022-08-19T09:10:38;100796.19;;;22.09
53667;BMP280;39568;51.026;5.468;2022-08-19T09:13:17;100790.22;;;22.30
53667;BMP280;39568;51.026;5.468;2022-08-19T09:15:50;100801.38;;;22.43
53667;BMP280;39568;51.026;5.468;2022-08-19T09:18:19;100796.09;;;22.64
53667;BMP280;39568;51.026;5.468;2022-08-19T09:20:49;100797.38;;;22.63
53667;BMP280;39568;51.026;5.468;2022-08-19T09:23:18;100797.53;;;22.75
53667;BMP280;39568;51.026;5.468;2022-08-19T09:25:45;100793.06;;;22.89
53667;BMP280;39568;51.026;5.468;2022-08-19T09:28:12;100787.94;;;22.83
53667;BMP280;39568;51.026;5.468;2022-08-19T09:30:40;100796.25;;;23.35
53667;BMP280;39568;51.026;5.468;2022-08-19T09:33:07;100801.47;;;23.12
53667;BMP280;39568;51.026;5.468;2022-08-19T09:35:34;100801.34;;;24.44
53667;BMP280;39568;51.026;5.468;2022-08-19T09:38:02;100791.41;;;23.95
53667;BMP280;39568;51.026;5.468;2022-08-19T09:40:31;100807.63;;;23.53
53667;BMP280;39568;51.026;5.468;2022-08-19T09:42:58;100801.38;;;22.81
53667;BMP280;39568;51.026;5.468;2022-08-19T09:45:28;100795.06;;;22.12
53667;BMP280;39568;51.026;5.468;2022-08-19T09:47:56;100804.66;;;22.32
53667;BMP280;39568;51.026;5.468;2022-08-19T09:50:23;100815.44;;;23.68
53667;BMP280;39568;51.026;5.468;2022-08-19T09:52:52;100812.03;;;25.08
53667;BMP280;39568;51.026;5.468;2022-08-19T09:55:25;100810.16;;;25.45
53667;BMP280;39568;51.026;5.468;2022-08-19T09:57:56;100820.09;;;26.23
53667;BMP280;39568;51.026;5.468;2022-08-19T10:00:23;100809.09;;;26.21
53667;BMP280;39568;51.026;5.468;2022-08-19T10:02:53;100803.31;;;25.44
53667;BMP280;39568;51.026;5.468;2022-08-19T10:05:20;100806.19;;;24.46
53667;BMP280;39568;51.026;5.468;2022-08-19T10:08:04;100792.13;;;24.82
53667;BMP280;39568;51.026;5.468;2022-08-19T10:10:34;100808.19;;;24.66
53667;BMP280;39568;51.026;5.468;2022-08-19T10:13:05;100803.16;;;24.96
53667;BMP280;39568;51.026;5.468;2022-08-19T10:15:31;100795.72;;;25.42
53667;BMP280;39568;51.026;5.468;2022-08-19T10:17:58;100794.22;;;25.87
53667;BMP280;39568;51.026;5.468;2022-08-19T10:20:25;100786.03;;;25.99
53667;BMP280;39568;51.026;5.468;2022-08-19T10:22:52;100792.78;;;25.27
53667;BMP280;39568;51.026;5.468;2022-08-19T10:25:20;100791.16;;;24.77
53667;BMP280;39568;51.026;5.468;2022-08-19T10:27:48;100786.63;;;24.70
53667;BMP280;39568;51.026;5.468;2022-08-19T10:30:20;100780.81;;;26.28
53667;BMP280;39568;51.026;5.468;2022-08-19T10:32:47;100782.66;;;25.87
53667;BMP280;39568;51.026;5.468;2022-08-19T10:35:14;100778.06;;;26.03
53667;BMP280;39568;51.026;5.468;2022-08-19T10:37:42;100783.31;;;26.49
53667;BMP280;39568;51.026;5.468;2022-08-19T10:40:10;100786.00;;;26.61
53667;BMP280;39568;51.026;5.468;2022-08-19T10:42:37;100777.88;;;27.56
53667;BMP280;39568;51.026;5.468;2022-08-19T10:45:07;100772.56;;;28.63
53667;BMP280;39568;51.026;5.468;2022-08-19T10:47:37;100778.47;;;27.97
53667;BMP280;39568;51.026;5.468;2022-08-19T10:50:04;100781.63;;;27.49
53667;BMP280;39568;51.026;5.468;2022-08-19T10:52:49;100776.59;;;26.64
53667;BMP280;39568;51.026;5.468;2022-08-19T10:55:23;100768.44;;;26.39
53667;BMP280;39568;51.026;5.468;2022-08-19T10:58:11;100774.69;;;26.66
53667;BMP280;39568;51.026;5.468;2022-08-19T11:00:38;100772.13;;;27.36
53667;BMP280;39568;51.026;5.468;2022-08-19T11:03:07;100770.06;;;27.50
53667;BMP280;39568;51.026;5.468;2022-08-19T11:05:34;100762.38;;;26.79
53667;BMP280;39568;51.026;5.468;2022-08-19T11:08:06;100771.09;;;27.16
53667;BMP280;39568;51.026;5.468;2022-08-19T11:10:36;100766.44;;;27.05
53667;BMP280;39568;51.026;5.468;2022-08-19T11:13:10;100759.16;;;26.82
53667;BMP280;39568;51.026;5.468;2022-08-19T11:15:38;100768.88;;;26.22
53667;BMP280;39568;51.026;5.468;2022-08-19T11:18:08;100769.47;;;25.83
53667;BMP280;39568;51.026;5.468;2022-08-19T11:20:37;100769.69;;;25.39
53667;BMP280;39568;51.026;5.468;2022-08-19T11:23:10;100765.16;;;25.55
53667;BMP280;39568;51.026;5.468;2022-08-19T11:25:38;100763.13;;;26.04
53667;BMP280;39568;51.026;5.468;2022-08-19T11:28:05;100749.47;;;27.34
53667;BMP280;39568;51.026;5.468;2022-08-19T11:30:31;100760.63;;;27.67
53667;BMP280;39568;51.026;5.468;2022-08-19T11:32:59;100763.81;;;27.21
53667;BMP280;39568;51.026;5.468;2022-08-19T11:35:29;100756.59;;;26.09
53667;BMP280;39568;51.026;5.468;2022-08-19T11:37:56;100751.66;;;25.46
53667;BMP280;39568;51.026;5.468;2022-08-19T11:40:32;100758.38;;;25.56
53667;BMP280;39568;51.026;5.468;2022-08-19T11:43:04;100759.91;;;25.71
53667;BMP280;39568;51.026;5.468;2022-08-19T11:45:38;100757.53;;;25.77
53667;BMP280;39568;51.026;5.468;2022-08-19T11:48:04;100761.00;;;25.66
53667;BMP280;39568;51.026;5.468;2022-08-19T11:50:33;100757.84;;;26.20
53667;BMP280;39568;51.026;5.468;2022-08-19T11:53:00;100761.78;;;26.80
53667;BMP280;39568;51.026;5.468;2022-08-19T11:55:28;100754.91;;;26.79
53667;BMP280;39568;51.026;5.468;2022-08-19T11:58:04;100756.00;;;26.36
53667;BMP280;39568;51.026;5.468;2022-08-19T12:00:33;100763.09;;;26.79
53667;BMP280;39568;51.026;5.468;2022-08-19T12:03:03;100767.47;;;27.81
53667;BMP280;39568;51.026;5.468;2022-08-19T12:05:38;100767.75;;;28.01
53667;BMP280;39568;51.026;5.468;2022-08-19T12:08:09;100768.72;;;28.23
53667;BMP280;39568;51.026;5.468;2022-08-19T12:10:38;100765.03;;;28.17
53667;BMP280;39568;51.026;5.468;2022-08-19T12:13:06;100758.47;;;28.08
53667;BMP280;39568;51.026;5.468;2022-08-19T12:15:37;100764.19;;;29.23
53667;BMP280;39568;51.026;5.468;2022-08-19T12:18:06;100751.78;;;30.47
53667;BMP280;39568;51.026;5.468;2022-08-19T12:20:34;100746.09;;;30.80
53667;BMP280;39568;51.026;5.468;2022-08-19T12:23:02;100754.91;;;28.50
53667;BMP280;39568;51.026;5.468;2022-08-19T12:25:29;100750.94;;;27.50
53667;BMP280;39568;51.026;5.468;2022-08-19T12:27:58;100757.06;;;27.08
53667;BMP280;39568;51.026;5.468;2022-08-19T12:30:25;100755.53;;;26.91
53667;BMP280;39568;51.026;5.468;2022-08-19T12:32:52;100756.69;;;26.61
53667;BMP280;39568;51.026;5.468;2022-08-19T12:35:19;100749.19;;;26.48
53667;BMP280;39568;51.026;5.468;2022-08-19T12:37:47;100763.31;;;26.20
53667;BMP280;39568;51.026;5.468;2022-08-19T12:40:15;100757.56;;;26.52
53667;BMP280;39568;51.026;5.468;2022-08-19T12:42:43;100740.47;;;26.13
53667;BMP280;39568;51.026;5.468;2022-08-19T12:45:22;100740.88;;;25.96
53667;BMP280;39568;51.026;5.468;2022-08-19T12:47:54;100752.13;;;25.54
53667;BMP280;39568;51.026;5.468;2022-08-19T12:50:20;100745.88;;;25.28
53667;BMP280;39568;51.026;5.468;2022-08-19T12:52:50;100744.63;;;25.66
53667;BMP280;39568;51.026;5.468;2022-08-19T12:55:21;100750.47;;;25.97
53667;BMP280;39568;51.026;5.468;2022-08-19T12:57:48;100756.09;;;25.76
53667;BMP280;39568;51.026;5.468;2022-08-19T13:00:19;100741.72;;;25.50
53667;BMP280;39568;51.026;5.468;2022-08-19T13:02:48;100735.09;;;25.30
53667;BMP280;39568;51.026;5.468;2022-08-19T13:05:19;100736.00;;;24.77
53667;BMP280;39568;51.026;5.468;2022-08-19T13:07:49;100747.38;;;24.73
53667;BMP280;39568;51.026;5.468;2022-08-19T13:10:25;100735.81;;;24.40
53667;BMP280;39568;51.026;5.468;2022-08-19T13:12:52;100742.97;;;24.24
53667;BMP280;39568;51.026;5.468;2022-08-19T13:15:22;100739.81;;;24.39
53667;BMP280;39568;51.026;5.468;2022-08-19T13:17:51;100742.41;;;24.37
53667;BMP280;39568;51.026;5.468;2022-08-19T13:20:20;100745.09;;;24.26
53667;BMP280;39568;51.026;5.468;2022-08-19T13:22:48;100743.44;;;24.32
53667;BMP280;39568;51.026;5.468;2022-08-19T13:25:18;100750.84;;;24.41
53667;BMP280;39568;51.026;5.468;2022-08-19T13:27:49;100753.06;;;24.66
53667;BMP280;39568;51.026;5.468;2022-08-19T13:30:18;100734.13;;;24.79
53667;BMP280;39568;51.026;5.468;2022-08-19T13:33:02;100741.56;;;24.67
53667;BMP280;39568;51.026;5.468;2022-08-19T13:35:48;100729.56;;;24.49
53667;BMP280;39568;51.026;5.468;2022-08-19T13:38:23;100731.00;;;24.50
53667;BMP280;39568;51.026;5.468;2022-08-19T13:41:03;100732.81;;;24.36
53667;BMP280;39568;51.026;5.468;2022-08-19T13:43:33;100720.38;;;24.22
53667;BMP280;39568;51.026;5.468;2022-08-19T13:45:59;100718.88;;;24.30
53667;BMP280;39568;51.026;5.468;2022-08-19T13:48:28;100723.53;;;24.18
53667;BMP280;39568;51.026;5.468;2022-08-19T13:50:57;100718.63;;;24.26
53667;BMP280;39568;51.026;5.468;2022-08-19T13:53:24;100713.31;;;24.40
53667;BMP280;39568;51.026;5.468;2022-08-19T13:55:50;100709.97;;;24.51
53667;BMP280;39568;51.026;5.468;2022-08-19T13:58:19;100713.31;;;24.84
53667;BMP280;39568;51.026;5.468;2022-08-19T14:00:50;100712.97;;;25.01
53667;BMP280;39568;51.026;5.468;2022-08-19T14:03:33;100713.81;;;25.04
53667;BMP280;39568;51.026;5.468;2022-08-19T14:06:00;100702.78;;;24.90
53667;BMP280;39568;51.026;5.468;2022-08-19T14:08:27;100710.69;;;24.86
53667;BMP280;39568;51.026;5.468;2022-08-19T14:10:57;100711.06;;;24.80
53667;BMP280;39568;51.026;5.468;2022-08-19T14:13:41;100714.03;;;25.08
53667;BMP280;39568;51.026;5.468;2022-08-19T14:16:14;100713.44;;;25.44